Weather at Treasure Island Seaplane Base

Public forecast

Using degrees Celsius for public forecast. Weather courtesy of forecast.io.

Closest aviation weather report (METAR) to Treasure Island Seaplane Base

Closest report is Nadi International Airport, 11.8 nm (21.9 km) ESE.

2024/02/25 13:00 (retrieved 20 minutes ago)

NFFN 251300Z VRB02KT 9999 FEW028TCU SCT048 BKN300 25/24 Q1009 NOSIG

Closest aviation forecast (TAF) to Treasure Island Seaplane Base

Closest forecast is Nadi International Airport, 11.8 nm (21.9 km) ESE.

2024/02/25 12:00 (retrieved 1 hour ago)

TAF NFFN 251106Z 2512/2612 12005KT 9999 SCT045 SCT045 BKN100 TEMPO 2600/2608 3000 +TSRA BKN012 SCT015CB